LAN8085 EGLL-SBGR
Flight info
| Callsign | LAN8085 |
|---|---|
| Flight time | N/A |
| Altitude | 28000 |
| Route | GASGU N514 ADKIK DCT JOZMA DCT GAPLI/M080F280 DCT EVBAK DCT TAMEL DCT GONAN DCT 40N017W/M080F300 35N020W DCT RIPOD/N0478F290 DCT GOBEG/M082F300 DCT BAMUX/N0487F320 DCT TARIM DCT PINRU/N0498F330 UN741 NANIK/N0498F320 UN741 PUNOM/N0496F340 UN741 ERUGU UZ61 REDAD UZ21 VUNOX |
| Aircraft | B77W/H-SDE1E2E3FGHIJ2J3J4J5M1RWXY/LB1D1 |
Departure
| Time | N/A |
|---|---|
| Airport | London Heathrow Airport (EGLL) |
Arrival
| Time | 2026-05-05 20:11 |
|---|---|
| Airport | São Paulo/Guarulhos–Governor André Franco Montoro International Airport (SBGR) |
| Time | Latitude | Longitude | Altitude | Speed | Heading |
|---|---|---|---|---|---|
| 2026-05-05 19:24 | -19.52543 | -44.26082 | 35242 ft | 457 kts | 211° |
| 2026-05-05 19:24 | -19.55317 | -44.27740 | 35244 ft | 457 kts | 211° |
| 2026-05-05 19:24 | -19.60866 | -44.31059 | 35240 ft | 456 kts | 211° |
| 2026-05-05 19:25 | -19.66421 | -44.34385 | 35243 ft | 456 kts | 211° |
| 2026-05-05 19:25 | -19.71982 | -44.37717 | 35243 ft | 456 kts | 211° |
| 2026-05-05 19:26 | -19.77519 | -44.41037 | 35243 ft | 455 kts | 211° |
| 2026-05-05 19:26 | -19.83057 | -44.44360 | 35243 ft | 455 kts | 211° |
| 2026-05-05 19:27 | -19.88585 | -44.47681 | 35241 ft | 455 kts | 211° |
| 2026-05-05 19:27 | -19.94124 | -44.51011 | 35248 ft | 455 kts | 211° |
| 2026-05-05 19:28 | -19.99656 | -44.54339 | 35253 ft | 456 kts | 211° |
| 2026-05-05 19:28 | -20.05092 | -44.57613 | 35251 ft | 455 kts | 211° |
| 2026-05-05 19:29 | -20.10612 | -44.60940 | 35249 ft | 455 kts | 211° |
| 2026-05-05 19:29 | -20.16020 | -44.64202 | 35256 ft | 455 kts | 210° |
| 2026-05-05 19:30 | -20.21448 | -44.67480 | 35263 ft | 456 kts | 211° |
| 2026-05-05 19:30 | -20.26981 | -44.70823 | 35254 ft | 456 kts | 211° |
| 2026-05-05 19:31 | -20.32487 | -44.74153 | 35258 ft | 454 kts | 211° |
| 2026-05-05 19:31 | -20.38022 | -44.77503 | 35263 ft | 454 kts | 211° |
| 2026-05-05 19:32 | -20.43531 | -44.80841 | 35269 ft | 454 kts | 211° |
| 2026-05-05 19:32 | -20.49040 | -44.84183 | 35268 ft | 455 kts | 211° |
| 2026-05-05 19:33 | -20.54542 | -44.87522 | 35272 ft | 455 kts | 211° |
| 2026-05-05 19:33 | -20.60064 | -44.90877 | 35271 ft | 455 kts | 211° |
| 2026-05-05 19:34 | -20.65588 | -44.94237 | 35264 ft | 455 kts | 211° |
| 2026-05-05 19:35 | -20.73878 | -44.99285 | 35259 ft | 455 kts | 211° |
| 2026-05-05 19:35 | -20.79396 | -45.02650 | 35256 ft | 455 kts | 211° |
| 2026-05-05 19:36 | -20.84905 | -45.06013 | 35262 ft | 455 kts | 210° |
| 2026-05-05 19:36 | -20.90325 | -45.09512 | 35249 ft | 453 kts | 216° |
| 2026-05-05 19:37 | -20.95446 | -45.13524 | 35253 ft | 454 kts | 217° |
| 2026-05-05 19:37 | -21.00537 | -45.17539 | 35249 ft | 454 kts | 217° |
| 2026-05-05 19:38 | -21.05623 | -45.21551 | 35249 ft | 455 kts | 217° |
| 2026-05-05 19:38 | -21.10638 | -45.25510 | 35245 ft | 455 kts | 217° |
| 2026-05-05 19:39 | -21.15601 | -45.29431 | 35265 ft | 454 kts | 217° |
| 2026-05-05 19:39 | -21.20683 | -45.33450 | 35263 ft | 453 kts | 217° |
| 2026-05-05 19:40 | -21.25757 | -45.37466 | 35265 ft | 453 kts | 217° |
| 2026-05-05 19:40 | -21.30831 | -45.41485 | 35266 ft | 453 kts | 217° |
| 2026-05-05 19:41 | -21.35903 | -45.45506 | 35266 ft | 452 kts | 217° |
| 2026-05-05 19:41 | -21.40988 | -45.49541 | 35268 ft | 453 kts | 217° |
| 2026-05-05 19:42 | -21.46063 | -45.53571 | 35263 ft | 453 kts | 217° |
| 2026-05-05 19:42 | -21.51142 | -45.57603 | 35264 ft | 452 kts | 217° |
| 2026-05-05 19:43 | -21.56220 | -45.61586 | 35258 ft | 453 kts | 216° |
| 2026-05-05 19:43 | -21.61299 | -45.65572 | 35268 ft | 452 kts | 217° |
| 2026-05-05 19:43 | -21.63763 | -45.67508 | 35054 ft | 451 kts | 217° |
| 2026-05-05 19:44 | -21.66293 | -45.69497 | 34537 ft | 446 kts | 217° |
| 2026-05-05 19:44 | -21.68781 | -45.71454 | 33991 ft | 441 kts | 217° |
| 2026-05-05 19:44 | -21.71247 | -45.73395 | 33392 ft | 438 kts | 217° |
| 2026-05-05 19:44 | -21.73708 | -45.75332 | 32821 ft | 435 kts | 217° |
| 2026-05-05 19:45 | -21.76149 | -45.77255 | 32257 ft | 436 kts | 217° |
| 2026-05-05 19:45 | -21.78618 | -45.79201 | 31690 ft | 445 kts | 217° |
| 2026-05-05 19:45 | -21.81137 | -45.81188 | 31119 ft | 450 kts | 217° |
| 2026-05-05 19:45 | -21.83666 | -45.83182 | 30549 ft | 450 kts | 216° |
| 2026-05-05 19:46 | -21.86188 | -45.85172 | 29984 ft | 450 kts | 216° |
| 2026-05-05 19:46 | -21.88725 | -45.87175 | 29416 ft | 453 kts | 216° |
| 2026-05-05 19:46 | -21.91273 | -45.89188 | 28836 ft | 455 kts | 216° |
| 2026-05-05 19:46 | -21.93825 | -45.91204 | 28254 ft | 452 kts | 216° |
| 2026-05-05 19:47 | -21.96356 | -45.93206 | 27673 ft | 448 kts | 216° |
| 2026-05-05 19:47 | -21.98861 | -45.95187 | 27101 ft | 444 kts | 216° |
| 2026-05-05 19:47 | -22.01345 | -45.97152 | 26530 ft | 440 kts | 216° |
| 2026-05-05 19:47 | -22.03805 | -45.99100 | 25959 ft | 437 kts | 216° |
| 2026-05-05 19:48 | -22.06256 | -46.01041 | 25384 ft | 433 kts | 216° |
| 2026-05-05 19:48 | -22.08676 | -46.02959 | 24815 ft | 429 kts | 216° |
| 2026-05-05 19:48 | -22.11059 | -46.04848 | 24255 ft | 426 kts | 216° |
| 2026-05-05 19:48 | -22.13388 | -46.06695 | 23704 ft | 423 kts | 216° |
| 2026-05-05 19:49 | -22.15768 | -46.08584 | 23142 ft | 420 kts | 216° |
| 2026-05-05 19:49 | -22.17337 | -46.09830 | 22769 ft | 418 kts | 216° |
| 2026-05-05 19:49 | -22.19057 | -46.11197 | 22368 ft | 416 kts | 216° |
| 2026-05-05 19:49 | -22.21436 | -46.12962 | 21823 ft | 413 kts | 210° |
| 2026-05-05 19:50 | -22.24008 | -46.14283 | 21462 ft | 406 kts | 200° |
| 2026-05-05 19:50 | -22.26724 | -46.15150 | 21108 ft | 406 kts | 194° |
| 2026-05-05 19:50 | -22.29482 | -46.15870 | 20698 ft | 405 kts | 193° |
| 2026-05-05 19:50 | -22.32215 | -46.16578 | 20304 ft | 400 kts | 193° |
| 2026-05-05 19:51 | -22.34913 | -46.17276 | 19922 ft | 394 kts | 193° |
| 2026-05-05 19:51 | -22.37571 | -46.17964 | 19542 ft | 391 kts | 193° |
| 2026-05-05 19:51 | -22.40223 | -46.18651 | 19160 ft | 389 kts | 193° |
| 2026-05-05 19:51 | -22.42860 | -46.19335 | 18782 ft | 390 kts | 193° |
| 2026-05-05 19:52 | -22.45510 | -46.20022 | 18405 ft | 389 kts | 193° |
| 2026-05-05 19:52 | -22.48141 | -46.20705 | 18031 ft | 386 kts | 193° |
| 2026-05-05 19:52 | -22.50749 | -46.21381 | 17656 ft | 381 kts | 193° |
| 2026-05-05 19:52 | -22.53320 | -46.22049 | 17284 ft | 377 kts | 193° |
| 2026-05-05 19:53 | -22.55867 | -46.22711 | 16927 ft | 372 kts | 192° |
| 2026-05-05 19:53 | -22.58385 | -46.23365 | 16577 ft | 367 kts | 192° |
| 2026-05-05 19:53 | -22.60865 | -46.24009 | 16232 ft | 362 kts | 193° |
| 2026-05-05 19:53 | -22.63293 | -46.24673 | 15917 ft | 356 kts | 198° |
| 2026-05-05 19:54 | -22.65566 | -46.25715 | 15613 ft | 351 kts | 205° |
| 2026-05-05 19:54 | -22.67755 | -46.26863 | 15304 ft | 346 kts | 205° |
| 2026-05-05 19:54 | -22.69917 | -46.28003 | 14993 ft | 341 kts | 205° |
| 2026-05-05 19:54 | -22.72038 | -46.29122 | 14715 ft | 335 kts | 205° |
| 2026-05-05 19:55 | -22.74131 | -46.30226 | 14462 ft | 333 kts | 205° |
| 2026-05-05 19:55 | -22.76221 | -46.31330 | 14203 ft | 334 kts | 205° |
| 2026-05-05 19:55 | -22.78307 | -46.32431 | 13941 ft | 333 kts | 205° |
| 2026-05-05 19:55 | -22.80393 | -46.33533 | 13679 ft | 332 kts | 205° |
| 2026-05-05 19:56 | -22.82487 | -46.34640 | 13415 ft | 330 kts | 205° |
| 2026-05-05 19:56 | -22.84550 | -46.35730 | 13152 ft | 326 kts | 205° |
| 2026-05-05 19:56 | -22.86574 | -46.36800 | 12888 ft | 321 kts | 205° |
| 2026-05-05 19:56 | -22.88573 | -46.37859 | 12624 ft | 315 kts | 205° |
| 2026-05-05 19:57 | -22.90534 | -46.38896 | 12365 ft | 310 kts | 205° |
| 2026-05-05 19:57 | -22.92459 | -46.39915 | 12104 ft | 305 kts | 205° |
| 2026-05-05 19:57 | -22.94368 | -46.40926 | 11825 ft | 301 kts | 205° |
| 2026-05-05 19:57 | -22.96241 | -46.41918 | 11545 ft | 297 kts | 205° |
| 2026-05-05 19:58 | -22.98106 | -46.42906 | 11258 ft | 294 kts | 205° |
| 2026-05-05 19:58 | -22.99945 | -46.43881 | 10971 ft | 290 kts | 205° |
| 2026-05-05 19:58 | -23.01749 | -46.44837 | 10692 ft | 287 kts | 205° |
| 2026-05-05 19:58 | -23.03494 | -46.45763 | 10417 ft | 284 kts | 205° |
| 2026-05-05 19:59 | -23.05267 | -46.46703 | 10133 ft | 282 kts | 205° |
| 2026-05-05 19:59 | -23.07041 | -46.47644 | 9814 ft | 283 kts | 205° |
| 2026-05-05 19:59 | -23.08814 | -46.48585 | 9485 ft | 283 kts | 205° |
| 2026-05-05 19:59 | -23.10562 | -46.49513 | 9163 ft | 282 kts | 205° |
| 2026-05-05 20:00 | -23.12322 | -46.50448 | 9031 ft | 272 kts | 205° |
| 2026-05-05 20:00 | -23.14005 | -46.51342 | 8870 ft | 265 kts | 205° |
| 2026-05-05 20:00 | -23.15660 | -46.52221 | 8700 ft | 263 kts | 205° |
| 2026-05-05 20:00 | -23.17314 | -46.53100 | 8521 ft | 264 kts | 205° |
| 2026-05-05 20:01 | -23.18952 | -46.53971 | 8407 ft | 262 kts | 205° |
| 2026-05-05 20:01 | -23.20589 | -46.54849 | 8334 ft | 262 kts | 208° |
| 2026-05-05 20:01 | -23.22133 | -46.55878 | 8282 ft | 252 kts | 212° |
| 2026-05-05 20:01 | -23.23565 | -46.56899 | 8197 ft | 239 kts | 212° |
| 2026-05-05 20:02 | -23.24923 | -46.57868 | 8096 ft | 226 kts | 212° |
| 2026-05-05 20:02 | -23.26241 | -46.58805 | 7977 ft | 226 kts | 212° |
| 2026-05-05 20:02 | -23.27563 | -46.59743 | 7681 ft | 225 kts | 212° |
| 2026-05-05 20:02 | -23.28871 | -46.60679 | 7374 ft | 224 kts | 215° |
| 2026-05-05 20:03 | -23.30106 | -46.61712 | 7070 ft | 223 kts | 218° |
| 2026-05-05 20:03 | -23.31324 | -46.62769 | 6763 ft | 222 kts | 218° |
| 2026-05-05 20:03 | -23.32462 | -46.63758 | 6475 ft | 221 kts | 218° |
| 2026-05-05 20:03 | -23.33665 | -46.64806 | 6170 ft | 219 kts | 218° |
| 2026-05-05 20:04 | -23.34821 | -46.65809 | 6040 ft | 206 kts | 218° |
| 2026-05-05 20:04 | -23.35909 | -46.66752 | 6028 ft | 197 kts | 218° |
| 2026-05-05 20:04 | -23.36987 | -46.67686 | 6027 ft | 197 kts | 218° |
| 2026-05-05 20:04 | -23.38079 | -46.68607 | 6023 ft | 196 kts | 214° |
| 2026-05-05 20:05 | -23.39232 | -46.69426 | 6025 ft | 197 kts | 212° |
| 2026-05-05 20:05 | -23.40436 | -46.70154 | 5988 ft | 197 kts | 194° |
| 2026-05-05 20:05 | -23.41800 | -46.70212 | 5975 ft | 197 kts | 174° |
| 2026-05-05 20:05 | -23.43166 | -46.70042 | 5940 ft | 196 kts | 172° |
| 2026-05-05 20:06 | -23.44528 | -46.69866 | 5893 ft | 196 kts | 171° |
| 2026-05-05 20:06 | -23.45842 | -46.69484 | 5798 ft | 194 kts | 157° |
| 2026-05-05 20:06 | -23.47056 | -46.68924 | 5643 ft | 194 kts | 155° |
| 2026-05-05 20:06 | -23.48289 | -46.68338 | 5543 ft | 191 kts | 155° |
| 2026-05-05 20:07 | -23.49371 | -46.67508 | 5500 ft | 190 kts | 123° |
| 2026-05-05 20:07 | -23.49751 | -46.66163 | 5456 ft | 188 kts | 85° |
| 2026-05-05 20:07 | -23.49274 | -46.64879 | 5322 ft | 185 kts | 47° |
| 2026-05-05 20:07 | -23.48358 | -46.63917 | 5108 ft | 182 kts | 44° |
| 2026-05-05 20:08 | -23.47667 | -46.62794 | 4899 ft | 174 kts | 69° |
| 2026-05-05 20:08 | -23.47344 | -46.61548 | 4695 ft | 169 kts | 75° |
| 2026-05-05 20:08 | -23.47033 | -46.60323 | 4499 ft | 167 kts | 73° |
| 2026-05-05 20:08 | -23.46715 | -46.59156 | 4307 ft | 166 kts | 73° |
| 2026-05-05 20:09 | -23.46389 | -46.57947 | 4103 ft | 166 kts | 73° |
| 2026-05-05 20:09 | -23.46064 | -46.56745 | 3898 ft | 164 kts | 73° |
| 2026-05-05 20:09 | -23.45744 | -46.55562 | 3697 ft | 161 kts | 73° |
| 2026-05-05 20:09 | -23.45431 | -46.54392 | 3475 ft | 162 kts | 72° |
| 2026-05-05 20:10 | -23.45106 | -46.53235 | 3233 ft | 159 kts | 72° |
| 2026-05-05 20:10 | -23.44791 | -46.52076 | 3037 ft | 161 kts | 73° |
| 2026-05-05 20:10 | -23.44476 | -46.50893 | 2838 ft | 164 kts | 74° |
| 2026-05-05 20:10 | -23.44156 | -46.49701 | 2652 ft | 164 kts | 73° |
| 2026-05-05 20:11 | -23.43838 | -46.48533 | 2509 ft | 155 kts | 73° |
| 2026-05-05 20:11 | -23.43553 | -46.47491 | 2480 ft | 127 kts | 76° |
| 2026-05-05 20:11 | -23.43335 | -46.46680 | 2464 ft | 82 kts | 74° |
| 2026-05-05 20:11 | -23.43234 | -46.46295 | 2459 ft | 45 kts | 73° |
| 2026-05-05 20:12 | -23.43166 | -46.46045 | 2458 ft | 25 kts | 76° |